sensor_id;sensor_type;location;lat;lon;timestamp;P1;durP1;ratioP1;P2;durP2;ratioP2
20635;SDS011;10477;43.198;27.916;2022-08-14T00:01:47;101.95;;;94.55;;
20635;SDS011;10477;43.198;27.916;2022-08-14T00:04:14;109.35;;;101.65;;
20635;SDS011;10477;43.198;27.916;2022-08-14T00:06:42;107.67;;;100.07;;
20635;SDS011;10477;43.198;27.916;2022-08-14T00:09:10;104.97;;;97.47;;
20635;SDS011;10477;43.198;27.916;2022-08-14T00:11:38;105.30;;;97.50;;
20635;SDS011;10477;43.198;27.916;2022-08-14T00:14:08;111.97;;;103.75;;
20635;SDS011;10477;43.198;27.916;2022-08-14T00:16:37;115.67;;;107.17;;
20635;SDS011;10477;43.198;27.916;2022-08-14T00:19:05;117.95;;;109.40;;
20635;SDS011;10477;43.198;27.916;2022-08-14T00:21:32;116.67;;;108.17;;
20635;SDS011;10477;43.198;27.916;2022-08-14T00:24:01;117.03;;;108.45;;
20635;SDS011;10477;43.198;27.916;2022-08-14T00:26:30;120.47;;;111.68;;
20635;SDS011;10477;43.198;27.916;2022-08-14T00:28:57;124.07;;;115.17;;
20635;SDS011;10477;43.198;27.916;2022-08-14T00:31:25;122.58;;;113.97;;
20635;SDS011;10477;43.198;27.916;2022-08-14T00:33:55;119.97;;;111.28;;
20635;SDS011;10477;43.198;27.916;2022-08-14T00:36:22;116.90;;;108.75;;
20635;SDS011;10477;43.198;27.916;2022-08-14T00:38:50;120.05;;;111.40;;
20635;SDS011;10477;43.198;27.916;2022-08-14T00:41:18;120.67;;;111.97;;
20635;SDS011;10477;43.198;27.916;2022-08-14T00:43:47;116.67;;;108.47;;
20635;SDS011;10477;43.198;27.916;2022-08-14T00:46:15;117.37;;;109.12;;
20635;SDS011;10477;43.198;27.916;2022-08-14T00:48:42;121.80;;;113.03;;
20635;SDS011;10477;43.198;27.916;2022-08-14T00:51:10;114.40;;;106.22;;
20635;SDS011;10477;43.198;27.916;2022-08-14T00:53:38;117.43;;;109.00;;
20635;SDS011;10477;43.198;27.916;2022-08-14T00:56:07;116.85;;;108.52;;
20635;SDS011;10477;43.198;27.916;2022-08-14T00:58:35;119.13;;;110.50;;
20635;SDS011;10477;43.198;27.916;2022-08-14T01:01:04;117.27;;;109.07;;
20635;SDS011;10477;43.198;27.916;2022-08-14T01:03:34;120.03;;;111.60;;
20635;SDS011;10477;43.198;27.916;2022-08-14T01:06:08;117.30;;;109.30;;
20635;SDS011;10477;43.198;27.916;2022-08-14T01:08:40;110.13;;;102.13;;
20635;SDS011;10477;43.198;27.916;2022-08-14T01:11:11;106.55;;;99.15;;
20635;SDS011;10477;43.198;27.916;2022-08-14T01:13:41;103.30;;;96.00;;
20635;SDS011;10477;43.198;27.916;2022-08-14T01:16:11;104.50;;;97.17;;
20635;SDS011;10477;43.198;27.916;2022-08-14T01:18:41;100.57;;;93.40;;
20635;SDS011;10477;43.198;27.916;2022-08-14T01:21:32;93.60;;;86.90;;
20635;SDS011;10477;43.198;27.916;2022-08-14T01:24:02;88.58;;;82.27;;
20635;SDS011;10477;43.198;27.916;2022-08-14T01:26:32;86.30;;;80.10;;
20635;SDS011;10477;43.198;27.916;2022-08-14T01:29:02;77.03;;;70.85;;
20635;SDS011;10477;43.198;27.916;2022-08-14T01:31:32;82.47;;;76.35;;
20635;SDS011;10477;43.198;27.916;2022-08-14T01:34:09;78.80;;;73.03;;
20635;SDS011;10477;43.198;27.916;2022-08-14T01:36:37;84.15;;;77.92;;
20635;SDS011;10477;43.198;27.916;2022-08-14T01:39:13;88.12;;;81.50;;
20635;SDS011;10477;43.198;27.916;2022-08-14T01:41:37;82.92;;;76.82;;
20635;SDS011;10477;43.198;27.916;2022-08-14T01:44:06;82.90;;;76.80;;
20635;SDS011;10477;43.198;27.916;2022-08-14T01:46:37;89.15;;;81.82;;
20635;SDS011;10477;43.198;27.916;2022-08-14T01:49:08;87.57;;;81.10;;
20635;SDS011;10477;43.198;27.916;2022-08-14T01:51:37;85.73;;;79.43;;
20635;SDS011;10477;43.198;27.916;2022-08-14T01:54:12;97.53;;;89.30;;
20635;SDS011;10477;43.198;27.916;2022-08-14T01:56:37;92.43;;;85.60;;
20635;SDS011;10477;43.198;27.916;2022-08-14T01:59:07;92.55;;;85.55;;
20635;SDS011;10477;43.198;27.916;2022-08-14T02:01:46;92.03;;;85.03;;
20635;SDS011;10477;43.198;27.916;2022-08-14T02:04:17;100.20;;;92.37;;
20635;SDS011;10477;43.198;27.916;2022-08-14T02:06:45;98.37;;;91.37;;
20635;SDS011;10477;43.198;27.916;2022-08-14T02:09:16;105.78;;;98.17;;
20635;SDS011;10477;43.198;27.916;2022-08-14T02:11:45;107.95;;;99.95;;
20635;SDS011;10477;43.198;27.916;2022-08-14T02:14:13;105.03;;;97.33;;
20635;SDS011;10477;43.198;27.916;2022-08-14T02:16:46;107.73;;;100.03;;
20635;SDS011;10477;43.198;27.916;2022-08-14T02:19:21;114.00;;;105.57;;
20635;SDS011;10477;43.198;27.916;2022-08-14T02:21:52;110.47;;;102.57;;
20635;SDS011;10477;43.198;27.916;2022-08-14T02:24:24;116.70;;;108.40;;
20635;SDS011;10477;43.198;27.916;2022-08-14T02:26:57;112.47;;;104.53;;
20635;SDS011;10477;43.198;27.916;2022-08-14T02:29:27;114.97;;;106.90;;
20635;SDS011;10477;43.198;27.916;2022-08-14T02:31:57;124.40;;;115.70;;
20635;SDS011;10477;43.198;27.916;2022-08-14T02:34:33;122.62;;;113.92;;
20635;SDS011;10477;43.198;27.916;2022-08-14T02:37:04;123.80;;;115.10;;
20635;SDS011;10477;43.198;27.916;2022-08-14T02:39:35;126.70;;;117.85;;
20635;SDS011;10477;43.198;27.916;2022-08-14T02:42:06;136.60;;;127.23;;
20635;SDS011;10477;43.198;27.916;2022-08-14T02:44:37;128.05;;;119.02;;
20635;SDS011;10477;43.198;27.916;2022-08-14T02:47:06;127.20;;;118.33;;
20635;SDS011;10477;43.198;27.916;2022-08-14T02:49:34;120.73;;;112.27;;
20635;SDS011;10477;43.198;27.916;2022-08-14T02:52:03;121.42;;;112.83;;
20635;SDS011;10477;43.198;27.916;2022-08-14T02:54:32;125.00;;;116.40;;
20635;SDS011;10477;43.198;27.916;2022-08-14T02:57:01;121.57;;;113.07;;
20635;SDS011;10477;43.198;27.916;2022-08-14T02:59:32;132.30;;;123.20;;
20635;SDS011;10477;43.198;27.916;2022-08-14T03:02:03;127.23;;;118.57;;
20635;SDS011;10477;43.198;27.916;2022-08-14T03:04:33;126.40;;;117.73;;
20635;SDS011;10477;43.198;27.916;2022-08-14T03:07:01;137.97;;;128.47;;
20635;SDS011;10477;43.198;27.916;2022-08-14T03:09:28;145.10;;;135.20;;
20635;SDS011;10477;43.198;27.916;2022-08-14T03:11:57;148.53;;;138.43;;
20635;SDS011;10477;43.198;27.916;2022-08-14T03:14:26;146.57;;;136.73;;
20635;SDS011;10477;43.198;27.916;2022-08-14T03:16:54;158.18;;;147.45;;
20635;SDS011;10477;43.198;27.916;2022-08-14T03:19:22;154.00;;;143.40;;
20635;SDS011;10477;43.198;27.916;2022-08-14T03:21:49;153.35;;;142.28;;
20635;SDS011;10477;43.198;27.916;2022-08-14T03:24:18;146.43;;;136.10;;
20635;SDS011;10477;43.198;27.916;2022-08-14T03:26:47;146.40;;;136.10;;
20635;SDS011;10477;43.198;27.916;2022-08-14T03:29:16;153.47;;;143.10;;
20635;SDS011;10477;43.198;27.916;2022-08-14T03:31:47;147.07;;;137.13;;
20635;SDS011;10477;43.198;27.916;2022-08-14T03:34:16;141.13;;;131.53;;
20635;SDS011;10477;43.198;27.916;2022-08-14T03:36:46;135.28;;;126.30;;
20635;SDS011;10477;43.198;27.916;2022-08-14T03:39:17;126.58;;;117.97;;
20635;SDS011;10477;43.198;27.916;2022-08-14T03:41:46;127.55;;;118.85;;
20635;SDS011;10477;43.198;27.916;2022-08-14T03:44:15;120.67;;;112.32;;
20635;SDS011;10477;43.198;27.916;2022-08-14T03:46:43;104.85;;;97.53;;
20635;SDS011;10477;43.198;27.916;2022-08-14T03:49:10;95.85;;;89.22;;
20635;SDS011;10477;43.198;27.916;2022-08-14T03:51:38;95.92;;;89.37;;
20635;SDS011;10477;43.198;27.916;2022-08-14T03:54:08;91.05;;;84.75;;
20635;SDS011;10477;43.198;27.916;2022-08-14T03:56:37;90.50;;;84.20;;
20635;SDS011;10477;43.198;27.916;2022-08-14T03:59:06;78.62;;;73.02;;
20635;SDS011;10477;43.198;27.916;2022-08-14T04:01:37;77.70;;;72.05;;
20635;SDS011;10477;43.198;27.916;2022-08-14T04:04:06;79.53;;;73.92;;
20635;SDS011;10477;43.198;27.916;2022-08-14T04:06:35;74.03;;;68.62;;
20635;SDS011;10477;43.198;27.916;2022-08-14T04:09:04;75.45;;;69.95;;
20635;SDS011;10477;43.198;27.916;2022-08-14T04:11:34;72.87;;;66.22;;
20635;SDS011;10477;43.198;27.916;2022-08-14T04:14:03;67.22;;;62.15;;
20635;SDS011;10477;43.198;27.916;2022-08-14T04:16:32;65.10;;;60.25;;
20635;SDS011;10477;43.198;27.916;2022-08-14T04:19:00;64.53;;;59.63;;
20635;SDS011;10477;43.198;27.916;2022-08-14T04:21:29;58.00;;;53.52;;
20635;SDS011;10477;43.198;27.916;2022-08-14T04:23:58;59.75;;;55.00;;
20635;SDS011;10477;43.198;27.916;2022-08-14T04:26:28;58.55;;;54.05;;
20635;SDS011;10477;43.198;27.916;2022-08-14T04:28:56;62.27;;;56.80;;
20635;SDS011;10477;43.198;27.916;2022-08-14T04:31:25;58.68;;;54.27;;
20635;SDS011;10477;43.198;27.916;2022-08-14T04:33:53;60.98;;;56.37;;
20635;SDS011;10477;43.198;27.916;2022-08-14T04:36:20;52.78;;;48.68;;
20635;SDS011;10477;43.198;27.916;2022-08-14T04:38:48;59.53;;;54.05;;
20635;SDS011;10477;43.198;27.916;2022-08-14T04:41:34;50.25;;;46.25;;
20635;SDS011;10477;43.198;27.916;2022-08-14T04:44:20;52.00;;;47.67;;
20635;SDS011;10477;43.198;27.916;2022-08-14T04:46:47;53.60;;;49.30;;
20635;SDS011;10477;43.198;27.916;2022-08-14T04:49:33;62.40;;;57.45;;
20635;SDS011;10477;43.198;27.916;2022-08-14T04:52:02;59.30;;;54.53;;
20635;SDS011;10477;43.198;27.916;2022-08-14T04:54:30;56.65;;;52.15;;
20635;SDS011;10477;43.198;27.916;2022-08-14T04:56:57;56.92;;;52.25;;
20635;SDS011;10477;43.198;27.916;2022-08-14T04:59:25;56.40;;;51.90;;
20635;SDS011;10477;43.198;27.916;2022-08-14T05:01:52;54.67;;;50.10;;
20635;SDS011;10477;43.198;27.916;2022-08-14T05:04:22;52.83;;;48.83;;
20635;SDS011;10477;43.198;27.916;2022-08-14T05:06:50;50.05;;;45.83;;
20635;SDS011;10477;43.198;27.916;2022-08-14T05:09:21;49.38;;;45.28;;
20635;SDS011;10477;43.198;27.916;2022-08-14T05:11:49;55.00;;;50.45;;
20635;SDS011;10477;43.198;27.916;2022-08-14T05:14:18;57.20;;;52.05;;
20635;SDS011;10477;43.198;27.916;2022-08-14T05:16:48;50.15;;;46.10;;
20635;SDS011;10477;43.198;27.916;2022-08-14T05:19:16;45.55;;;41.33;;
20635;SDS011;10477;43.198;27.916;2022-08-14T05:21:46;46.85;;;42.85;;
20635;SDS011;10477;43.198;27.916;2022-08-14T05:24:14;48.08;;;43.95;;
20635;SDS011;10477;43.198;27.916;2022-08-14T05:26:43;43.25;;;39.60;;
20635;SDS011;10477;43.198;27.916;2022-08-14T05:29:12;42.25;;;38.70;;
20635;SDS011;10477;43.198;27.916;2022-08-14T05:31:41;40.52;;;37.13;;
20635;SDS011;10477;43.198;27.916;2022-08-14T05:34:09;42.17;;;38.75;;
20635;SDS011;10477;43.198;27.916;2022-08-14T05:36:40;43.60;;;39.75;;
20635;SDS011;10477;43.198;27.916;2022-08-14T05:39:07;40.83;;;37.42;;
20635;SDS011;10477;43.198;27.916;2022-08-14T05:41:35;38.70;;;35.40;;
20635;SDS011;10477;43.198;27.916;2022-08-14T05:44:03;37.80;;;34.58;;
20635;SDS011;10477;43.198;27.916;2022-08-14T05:46:30;38.75;;;35.55;;
20635;SDS011;10477;43.198;27.916;2022-08-14T05:48:59;41.00;;;37.35;;
20635;SDS011;10477;43.198;27.916;2022-08-14T05:51:26;36.95;;;33.85;;
20635;SDS011;10477;43.198;27.916;2022-08-14T05:53:54;36.90;;;33.80;;
20635;SDS011;10477;43.198;27.916;2022-08-14T05:56:22;37.78;;;34.67;;
20635;SDS011;10477;43.198;27.916;2022-08-14T05:58:51;37.73;;;34.63;;
20635;SDS011;10477;43.198;27.916;2022-08-14T06:01:19;34.95;;;32.05;;
20635;SDS011;10477;43.198;27.916;2022-08-14T06:03:48;33.23;;;30.43;;
20635;SDS011;10477;43.198;27.916;2022-08-14T06:06:16;32.65;;;29.85;;
20635;SDS011;10477;43.198;27.916;2022-08-14T06:08:44;34.80;;;31.90;;
20635;SDS011;10477;43.198;27.916;2022-08-14T06:11:12;35.03;;;32.13;;
20635;SDS011;10477;43.198;27.916;2022-08-14T06:13:40;32.10;;;29.40;;
20635;SDS011;10477;43.198;27.916;2022-08-14T06:16:09;32.10;;;29.40;;
20635;SDS011;10477;43.198;27.916;2022-08-14T06:18:37;33.78;;;31.00;;
20635;SDS011;10477;43.198;27.916;2022-08-14T06:21:05;33.18;;;30.37;;
20635;SDS011;10477;43.198;27.916;2022-08-14T06:23:32;32.58;;;29.87;;
20635;SDS011;10477;43.198;27.916;2022-08-14T06:26:00;31.82;;;29.23;;
20635;SDS011;10477;43.198;27.916;2022-08-14T06:28:29;30.27;;;27.77;;
20635;SDS011;10477;43.198;27.916;2022-08-14T06:30:57;32.20;;;29.60;;
20635;SDS011;10477;43.198;27.916;2022-08-14T06:33:25;30.60;;;28.10;;
20635;SDS011;10477;43.198;27.916;2022-08-14T06:35:52;28.85;;;26.42;;
20635;SDS011;10477;43.198;27.916;2022-08-14T06:38:21;29.77;;;27.27;;
20635;SDS011;10477;43.198;27.916;2022-08-14T06:40:49;30.62;;;28.05;;
20635;SDS011;10477;43.198;27.916;2022-08-14T06:43:19;31.10;;;28.50;;
20635;SDS011;10477;43.198;27.916;2022-08-14T06:45:48;32.05;;;29.45;;
20635;SDS011;10477;43.198;27.916;2022-08-14T06:48:17;30.05;;;27.55;;
20635;SDS011;10477;43.198;27.916;2022-08-14T06:50:48;29.23;;;26.82;;
20635;SDS011;10477;43.198;27.916;2022-08-14T06:53:18;30.10;;;27.60;;
20635;SDS011;10477;43.198;27.916;2022-08-14T06:55:46;29.55;;;27.05;;
20635;SDS011;10477;43.198;27.916;2022-08-14T06:58:15;28.70;;;26.20;;
20635;SDS011;10477;43.198;27.916;2022-08-14T07:00:46;29.82;;;27.32;;
20635;SDS011;10477;43.198;27.916;2022-08-14T07:03:31;30.72;;;28.23;;
20635;SDS011;10477;43.198;27.916;2022-08-14T07:06:18;28.95;;;26.55;;
20635;SDS011;10477;43.198;27.916;2022-08-14T07:08:51;29.15;;;26.85;;
20635;SDS011;10477;43.198;27.916;2022-08-14T07:11:18;28.05;;;25.75;;
20635;SDS011;10477;43.198;27.916;2022-08-14T07:13:47;29.42;;;27.13;;
20635;SDS011;10477;43.198;27.916;2022-08-14T07:16:15;29.42;;;27.13;;
20635;SDS011;10477;43.198;27.916;2022-08-14T07:18:44;29.40;;;27.10;;
20635;SDS011;10477;43.198;27.916;2022-08-14T07:21:11;27.90;;;25.70;;
20635;SDS011;10477;43.198;27.916;2022-08-14T07:23:40;27.15;;;24.98;;
20635;SDS011;10477;43.198;27.916;2022-08-14T07:26:09;28.25;;;26.05;;
20635;SDS011;10477;43.198;27.916;2022-08-14T07:28:38;28.47;;;26.27;;
20635;SDS011;10477;43.198;27.916;2022-08-14T07:31:09;25.95;;;23.95;;
20635;SDS011;10477;43.198;27.916;2022-08-14T07:33:41;26.15;;;24.12;;
20635;SDS011;10477;43.198;27.916;2022-08-14T07:36:13;39.60;;;36.83;;
20635;SDS011;10477;43.198;27.916;2022-08-14T07:38:41;29.00;;;26.73;;
20635;SDS011;10477;43.198;27.916;2022-08-14T07:41:10;28.27;;;26.07;;
20635;SDS011;10477;43.198;27.916;2022-08-14T07:43:39;26.33;;;24.23;;
20635;SDS011;10477;43.198;27.916;2022-08-14T07:46:08;26.85;;;24.75;;
20635;SDS011;10477;43.198;27.916;2022-08-14T07:48:36;28.23;;;26.02;;
20635;SDS011;10477;43.198;27.916;2022-08-14T07:51:07;26.55;;;24.52;;
20635;SDS011;10477;43.198;27.916;2022-08-14T07:53:36;25.68;;;23.67;;
20635;SDS011;10477;43.198;27.916;2022-08-14T07:56:05;26.05;;;24.05;;
20635;SDS011;10477;43.198;27.916;2022-08-14T07:58:35;27.00;;;24.92;;
20635;SDS011;10477;43.198;27.916;2022-08-14T08:01:05;28.00;;;25.90;;
20635;SDS011;10477;43.198;27.916;2022-08-14T08:03:34;26.10;;;24.10;;
20635;SDS011;10477;43.198;27.916;2022-08-14T08:06:05;26.85;;;24.80;;
20635;SDS011;10477;43.198;27.916;2022-08-14T08:08:34;27.50;;;25.40;;
20635;SDS011;10477;43.198;27.916;2022-08-14T08:11:01;40.38;;;34.95;;
20635;SDS011;10477;43.198;27.916;2022-08-14T08:13:32;27.50;;;25.40;;
20635;SDS011;10477;43.198;27.916;2022-08-14T08:16:01;26.80;;;24.80;;
20635;SDS011;10477;43.198;27.916;2022-08-14T08:18:32;26.82;;;24.63;;
20635;SDS011;10477;43.198;27.916;2022-08-14T08:21:00;27.50;;;25.40;;
20635;SDS011;10477;43.198;27.916;2022-08-14T08:23:29;28.05;;;25.75;;
20635;SDS011;10477;43.198;27.916;2022-08-14T08:26:00;25.88;;;23.87;;
20635;SDS011;10477;43.198;27.916;2022-08-14T08:28:29;27.05;;;24.95;;
20635;SDS011;10477;43.198;27.916;2022-08-14T08:30:58;27.35;;;25.25;;
20635;SDS011;10477;43.198;27.916;2022-08-14T08:33:29;27.17;;;25.08;;
20635;SDS011;10477;43.198;27.916;2022-08-14T08:36:02;27.87;;;25.82;;
20635;SDS011;10477;43.198;27.916;2022-08-14T08:38:33;26.40;;;24.40;;
20635;SDS011;10477;43.198;27.916;2022-08-14T08:41:01;27.37;;;25.25;;
20635;SDS011;10477;43.198;27.916;2022-08-14T08:43:30;27.22;;;25.23;;
20635;SDS011;10477;43.198;27.916;2022-08-14T08:46:00;29.70;;;27.40;;
20635;SDS011;10477;43.198;27.916;2022-08-14T08:48:46;27.35;;;25.00;;
20635;SDS011;10477;43.198;27.916;2022-08-14T08:54:05;28.73;;;26.52;;
20635;SDS011;10477;43.198;27.916;2022-08-14T08:56:37;28.57;;;26.42;;
20635;SDS011;10477;43.198;27.916;2022-08-14T08:59:14;27.30;;;25.12;;
20635;SDS011;10477;43.198;27.916;2022-08-14T09:01:55;25.90;;;23.90;;
20635;SDS011;10477;43.198;27.916;2022-08-14T09:04:28;27.90;;;25.80;;
20635;SDS011;10477;43.198;27.916;2022-08-14T09:06:55;26.93;;;24.92;;
20635;SDS011;10477;43.198;27.916;2022-08-14T09:09:25;25.95;;;23.95;;
20635;SDS011;10477;43.198;27.916;2022-08-14T09:11:56;26.48;;;24.47;;
20635;SDS011;10477;43.198;27.916;2022-08-14T09:14:27;28.52;;;26.33;;
20635;SDS011;10477;43.198;27.916;2022-08-14T09:16:56;28.75;;;26.45;;
20635;SDS011;10477;43.198;27.916;2022-08-14T09:19:26;29.32;;;27.02;;
20635;SDS011;10477;43.198;27.916;2022-08-14T09:21:54;28.87;;;26.57;;
20635;SDS011;10477;43.198;27.916;2022-08-14T09:24:22;29.87;;;27.58;;
20635;SDS011;10477;43.198;27.916;2022-08-14T09:26:50;30.25;;;27.95;;
20635;SDS011;10477;43.198;27.916;2022-08-14T09:29:18;28.80;;;26.60;;
20635;SDS011;10477;43.198;27.916;2022-08-14T09:31:48;28.90;;;26.60;;
20635;SDS011;10477;43.198;27.916;2022-08-14T09:45:32;30.40;;;27.73;;
20635;SDS011;10477;43.198;27.916;2022-08-14T09:48:13;32.42;;;29.72;;
20635;SDS011;10477;43.198;27.916;2022-08-14T09:50:52;29.57;;;27.22;;
20635;SDS011;10477;43.198;27.916;2022-08-14T09:56:06;30.08;;;27.67;;
20635;SDS011;10477;43.198;27.916;2022-08-14T09:58:40;28.92;;;26.73;;
20635;SDS011;10477;43.198;27.916;2022-08-14T10:01:13;30.77;;;28.40;;
20635;SDS011;10477;43.198;27.916;2022-08-14T10:03:47;31.73;;;29.35;;
20635;SDS011;10477;43.198;27.916;2022-08-14T10:06:18;28.73;;;26.30;;
20635;SDS011;10477;43.198;27.916;2022-08-14T10:09:03;27.55;;;25.45;;
20635;SDS011;10477;43.198;27.916;2022-08-14T10:11:33;30.00;;;27.70;;
20635;SDS011;10477;43.198;27.916;2022-08-14T10:14:16;27.25;;;25.17;;
20635;SDS011;10477;43.198;27.916;2022-08-14T10:16:46;28.80;;;26.55;;
20635;SDS011;10477;43.198;27.916;2022-08-14T10:19:20;27.80;;;25.70;;
20635;SDS011;10477;43.198;27.916;2022-08-14T10:21:57;28.30;;;26.10;;
20635;SDS011;10477;43.198;27.916;2022-08-14T10:24:28;28.25;;;26.05;;
20635;SDS011;10477;43.198;27.916;2022-08-14T10:27:00;27.73;;;25.62;;
20635;SDS011;10477;43.198;27.916;2022-08-14T10:29:35;27.95;;;25.85;;
20635;SDS011;10477;43.198;27.916;2022-08-14T10:32:05;28.62;;;26.42;;
20635;SDS011;10477;43.198;27.916;2022-08-14T10:34:36;28.67;;;26.48;;
20635;SDS011;10477;43.198;27.916;2022-08-14T10:37:07;27.77;;;25.68;;
20635;SDS011;10477;43.198;27.916;2022-08-14T10:39:36;29.95;;;27.55;;
20635;SDS011;10477;43.198;27.916;2022-08-14T10:42:14;29.82;;;27.62;;
20635;SDS011;10477;43.198;27.916;2022-08-14T10:44:40;31.40;;;29.00;;
20635;SDS011;10477;43.198;27.916;2022-08-14T10:47:11;28.10;;;26.05;;
20635;SDS011;10477;43.198;27.916;2022-08-14T10:49:40;29.45;;;27.15;;
20635;SDS011;10477;43.198;27.916;2022-08-14T10:52:22;28.52;;;26.27;;
20635;SDS011;10477;43.198;27.916;2022-08-14T10:55:04;29.50;;;27.30;;
20635;SDS011;10477;43.198;27.916;2022-08-14T10:57:51;28.17;;;26.07;;
20635;SDS011;10477;43.198;27.916;2022-08-14T11:00:23;27.37;;;25.27;;
20635;SDS011;10477;43.198;27.916;2022-08-14T11:02:56;29.77;;;27.05;;
20635;SDS011;10477;43.198;27.916;2022-08-14T11:05:41;28.90;;;26.80;;
20635;SDS011;10477;43.198;27.916;2022-08-14T11:08:10;28.05;;;25.95;;
20635;SDS011;10477;43.198;27.916;2022-08-14T11:10:45;30.08;;;27.77;;
20635;SDS011;10477;43.198;27.916;2022-08-14T11:13:16;28.38;;;26.17;;
20635;SDS011;10477;43.198;27.916;2022-08-14T11:15:46;27.07;;;25.08;;
20635;SDS011;10477;43.198;27.916;2022-08-14T11:18:14;27.90;;;25.80;;
20635;SDS011;10477;43.198;27.916;2022-08-14T11:20:46;27.20;;;25.10;;
20635;SDS011;10477;43.198;27.916;2022-08-14T11:23:18;28.60;;;26.40;;
20635;SDS011;10477;43.198;27.916;2022-08-14T11:25:48;27.58;;;25.52;;
20635;SDS011;10477;43.198;27.916;2022-08-14T11:28:18;28.15;;;25.95;;
20635;SDS011;10477;43.198;27.916;2022-08-14T11:30:49;28.27;;;26.07;;
20635;SDS011;10477;43.198;27.916;2022-08-14T11:33:24;29.48;;;27.27;;
20635;SDS011;10477;43.198;27.916;2022-08-14T11:35:53;29.85;;;27.55;;
20635;SDS011;10477;43.198;27.916;2022-08-14T11:38:27;29.95;;;27.75;;
20635;SDS011;10477;43.198;27.916;2022-08-14T11:40:58;29.23;;;27.02;;
20635;SDS011;10477;43.198;27.916;2022-08-14T11:43:26;29.90;;;27.62;;
20635;SDS011;10477;43.198;27.916;2022-08-14T11:45:54;27.80;;;25.70;;
20635;SDS011;10477;43.198;27.916;2022-08-14T11:48:23;27.37;;;25.37;;
20635;SDS011;10477;43.198;27.916;2022-08-14T11:50:52;27.98;;;25.88;;
20635;SDS011;10477;43.198;27.916;2022-08-14T11:53:27;29.23;;;27.02;;
20635;SDS011;10477;43.198;27.916;2022-08-14T11:55:59;29.87;;;27.65;;
20635;SDS011;10477;43.198;27.916;2022-08-14T11:58:33;31.33;;;28.92;;
20635;SDS011;10477;43.198;27.916;2022-08-14T12:01:02;28.50;;;26.20;;
20635;SDS011;10477;43.198;27.916;2022-08-14T12:03:39;29.85;;;27.55;;
20635;SDS011;10477;43.198;27.916;2022-08-14T12:06:09;30.45;;;27.87;;
20635;SDS011;10477;43.198;27.916;2022-08-14T12:08:39;31.70;;;29.32;;
20635;SDS011;10477;43.198;27.916;2022-08-14T12:11:08;30.23;;;27.93;;
20635;SDS011;10477;43.198;27.916;2022-08-14T12:13:38;29.23;;;26.87;;
20635;SDS011;10477;43.198;27.916;2022-08-14T12:16:08;28.23;;;26.02;;
20635;SDS011;10477;43.198;27.916;2022-08-14T12:18:44;30.62;;;28.23;;
20635;SDS011;10477;43.198;27.916;2022-08-14T12:21:14;29.37;;;27.13;;
20635;SDS011;10477;43.198;27.916;2022-08-14T12:23:40;32.50;;;30.08;;
20635;SDS011;10477;43.198;27.916;2022-08-14T12:26:10;28.77;;;26.57;;
20635;SDS011;10477;43.198;27.916;2022-08-14T12:28:49;29.95;;;27.67;;
20635;SDS011;10477;43.198;27.916;2022-08-14T12:31:17;29.40;;;27.10;;
20635;SDS011;10477;43.198;27.916;2022-08-14T12:33:54;30.00;;;27.70;;
20635;SDS011;10477;43.198;27.916;2022-08-14T12:36:25;28.00;;;25.90;;
20635;SDS011;10477;43.198;27.916;2022-08-14T12:38:56;26.37;;;24.37;;
20635;SDS011;10477;43.198;27.916;2022-08-14T12:41:26;28.35;;;26.15;;
20635;SDS011;10477;43.198;27.916;2022-08-14T12:43:56;28.20;;;26.00;;
20635;SDS011;10477;43.198;27.916;2022-08-14T12:46:30;29.48;;;27.13;;
20635;SDS011;10477;43.198;27.916;2022-08-14T12:49:10;27.02;;;24.92;;
20635;SDS011;10477;43.198;27.916;2022-08-14T12:51:55;26.50;;;24.40;;
20635;SDS011;10477;43.198;27.916;2022-08-14T12:54:25;28.40;;;26.20;;
20635;SDS011;10477;43.198;27.916;2022-08-14T12:57:02;28.45;;;26.25;;
20635;SDS011;10477;43.198;27.916;2022-08-14T12:59:32;27.95;;;25.75;;
20635;SDS011;10477;43.198;27.916;2022-08-14T13:02:03;27.80;;;25.55;;
20635;SDS011;10477;43.198;27.916;2022-08-14T13:04:31;27.17;;;24.92;;
20635;SDS011;10477;43.198;27.916;2022-08-14T13:07:05;27.30;;;25.10;;
20635;SDS011;10477;43.198;27.916;2022-08-14T13:09:34;28.17;;;26.02;;
20635;SDS011;10477;43.198;27.916;2022-08-14T13:12:02;28.85;;;26.65;;
20635;SDS011;10477;43.198;27.916;2022-08-14T13:14:32;27.87;;;25.68;;
20635;SDS011;10477;43.198;27.916;2022-08-14T13:17:02;28.42;;;26.23;;
20635;SDS011;10477;43.198;27.916;2022-08-14T13:19:32;28.75;;;26.55;;
20635;SDS011;10477;43.198;27.916;2022-08-14T13:22:01;35.23;;;32.63;;
20635;SDS011;10477;43.198;27.916;2022-08-14T13:24:31;29.85;;;27.45;;
20635;SDS011;10477;43.198;27.916;2022-08-14T13:26:59;30.95;;;28.35;;
20635;SDS011;10477;43.198;27.916;2022-08-14T13:29:29;28.20;;;26.00;;
20635;SDS011;10477;43.198;27.916;2022-08-14T13:32:00;28.70;;;26.50;;
20635;SDS011;10477;43.198;27.916;2022-08-14T13:34:30;29.12;;;26.85;;
20635;SDS011;10477;43.198;27.916;2022-08-14T13:36:57;26.62;;;24.63;;
20635;SDS011;10477;43.198;27.916;2022-08-14T13:39:26;26.90;;;24.87;;
20635;SDS011;10477;43.198;27.916;2022-08-14T13:41:57;29.55;;;27.05;;
20635;SDS011;10477;43.198;27.916;2022-08-14T13:44:33;31.85;;;29.35;;
20635;SDS011;10477;43.198;27.916;2022-08-14T13:47:01;31.27;;;28.67;;
20635;SDS011;10477;43.198;27.916;2022-08-14T13:49:30;31.93;;;29.32;;
20635;SDS011;10477;43.198;27.916;2022-08-14T13:51:59;31.57;;;29.07;;
20635;SDS011;10477;43.198;27.916;2022-08-14T13:54:30;32.42;;;29.82;;
20635;SDS011;10477;43.198;27.916;2022-08-14T13:57:00;33.45;;;30.65;;
20635;SDS011;10477;43.198;27.916;2022-08-14T14:02:02;39.45;;;36.33;;
20635;SDS011;10477;43.198;27.916;2022-08-14T14:04:31;35.00;;;31.80;;
20635;SDS011;10477;43.198;27.916;2022-08-14T14:07:03;32.05;;;29.35;;
20635;SDS011;10477;43.198;27.916;2022-08-14T14:09:35;35.10;;;31.60;;
20635;SDS011;10477;43.198;27.916;2022-08-14T14:12:08;36.48;;;33.38;;
20635;SDS011;10477;43.198;27.916;2022-08-14T14:14:36;42.48;;;39.03;;
20635;SDS011;10477;43.198;27.916;2022-08-14T14:17:06;37.17;;;34.08;;
20635;SDS011;10477;43.198;27.916;2022-08-14T14:19:37;35.10;;;32.10;;
20635;SDS011;10477;43.198;27.916;2022-08-14T14:22:12;37.17;;;33.98;;
20635;SDS011;10477;43.198;27.916;2022-08-14T14:24:41;34.45;;;31.50;;
20635;SDS011;10477;43.198;27.916;2022-08-14T14:27:11;32.98;;;30.17;;
20635;SDS011;10477;43.198;27.916;2022-08-14T14:29:42;32.90;;;30.10;;
20635;SDS011;10477;43.198;27.916;2022-08-14T14:32:13;32.75;;;29.90;;
20635;SDS011;10477;43.198;27.916;2022-08-14T14:34:43;42.15;;;38.83;;
20635;SDS011;10477;43.198;27.916;2022-08-14T14:37:12;35.20;;;32.20;;
20635;SDS011;10477;43.198;27.916;2022-08-14T14:39:41;32.53;;;29.72;;
20635;SDS011;10477;43.198;27.916;2022-08-14T14:42:11;32.53;;;29.63;;